createdAt,value
2018-11-04T00:01:44.238Z,6.57
2018-11-04T00:04:13.146Z,9.77
2018-11-04T00:06:42.069Z,7.70
2018-11-04T00:09:11.914Z,8.27
2018-11-04T00:11:40.984Z,9.37
2018-11-04T00:14:09.856Z,8.97
2018-11-04T00:16:38.755Z,10.67
2018-11-04T00:19:07.655Z,7.83
2018-11-04T00:21:36.495Z,7.93
2018-11-04T00:24:05.494Z,8.00
2018-11-04T00:26:34.326Z,7.57
2018-11-04T00:29:03.210Z,7.57
2018-11-04T00:31:32.097Z,7.00
2018-11-04T00:34:00.961Z,6.70
2018-11-04T00:36:29.847Z,7.17
2018-11-04T00:38:58.749Z,9.73
2018-11-04T00:41:27.628Z,12.50
2018-11-04T00:43:56.516Z,7.23
2018-11-04T00:46:25.474Z,6.43
2018-11-04T00:48:54.337Z,5.97
2018-11-04T00:51:23.229Z,5.80
2018-11-04T00:53:52.075Z,7.87
2018-11-04T00:56:20.983Z,8.27
2018-11-04T00:58:49.929Z,7.37
2018-11-04T01:01:18.803Z,5.83
2018-11-04T01:03:47.698Z,6.30
2018-11-04T01:06:16.571Z,6.23
2018-11-04T01:08:45.492Z,7.03
2018-11-04T01:11:15.460Z,8.43
2018-11-04T01:13:44.366Z,9.00
2018-11-04T01:16:13.243Z,9.40
2018-11-04T01:18:42.130Z,9.00
2018-11-04T01:21:14.763Z,8.07
2018-11-04T01:23:43.659Z,5.37
2018-11-04T01:26:12.581Z,5.37
2018-11-04T01:28:41.463Z,6.53
2018-11-04T01:31:10.337Z,7.77
2018-11-04T01:33:39.297Z,18.07
2018-11-04T01:36:08.225Z,6.37
2018-11-04T01:38:37.139Z,6.73
2018-11-04T01:41:11.787Z,6.10
2018-11-04T01:43:40.648Z,6.50
2018-11-04T01:46:09.904Z,6.47
2018-11-04T01:49:03.137Z,4.93
2018-11-04T01:54:15.091Z,5.63
2018-11-04T01:56:43.970Z,9.87
2018-11-04T01:59:12.830Z,6.37
2018-11-04T02:01:41.960Z,7.07
2018-11-04T02:04:12.746Z,7.27
2018-11-04T02:06:41.674Z,10.77
2018-11-04T02:09:11.472Z,6.23
2018-11-04T02:11:41.646Z,6.93
2018-11-04T02:14:10.535Z,7.43
2018-11-04T02:16:39.459Z,4.80
2018-11-04T02:19:08.386Z,5.50
2018-11-04T02:21:38.162Z,6.80
2018-11-04T02:24:07.384Z,10.57
2018-11-04T02:26:36.338Z,6.83
2018-11-04T02:29:05.331Z,8.63
2018-11-04T02:31:34.232Z,6.87
2018-11-04T02:34:03.151Z,5.67
2018-11-04T02:36:32.126Z,6.17
2018-11-04T02:39:01.078Z,8.27
2018-11-04T02:41:30.002Z,7.87
2018-11-04T02:43:58.953Z,6.47
2018-11-04T02:46:27.904Z,6.30
2018-11-04T02:48:56.791Z,6.97
2018-11-04T02:51:25.727Z,7.10
2018-11-04T02:53:54.633Z,6.73
2018-11-04T02:56:23.676Z,6.83
2018-11-04T02:58:52.575Z,6.23
2018-11-04T03:01:21.504Z,6.67
2018-11-04T03:03:50.459Z,6.93
2018-11-04T03:06:19.386Z,5.07
2018-11-04T03:08:48.356Z,5.37
2018-11-04T03:11:17.303Z,6.13
2018-11-04T03:13:46.209Z,5.93
2018-11-04T03:16:15.151Z,5.33
2018-11-04T03:18:44.146Z,11.63
2018-11-04T03:21:13.116Z,7.10
2018-11-04T03:23:42.018Z,6.90
2018-11-04T03:26:10.963Z,5.80
2018-11-04T03:28:39.867Z,7.23
2018-11-04T03:31:08.753Z,5.87
2018-11-04T03:33:37.712Z,6.90
2018-11-04T03:36:06.682Z,7.03
2018-11-04T03:38:35.597Z,6.00
2018-11-04T03:41:04.594Z,6.87
2018-11-04T03:43:33.522Z,8.03
2018-11-04T03:46:02.581Z,7.63
2018-11-04T03:48:31.681Z,6.63
2018-11-04T03:51:00.722Z,5.77
2018-11-04T03:53:29.625Z,7.47
2018-11-04T03:55:58.633Z,6.73
2018-11-04T03:58:27.561Z,10.33
2018-11-04T04:00:56.512Z,5.87
2018-11-04T04:03:25.415Z,8.23
2018-11-04T04:05:54.414Z,9.70
2018-11-04T04:08:23.356Z,6.83
2018-11-04T04:10:52.344Z,7.47
2018-11-04T04:13:21.289Z,7.20
2018-11-04T04:15:50.231Z,8.93
2018-11-04T04:18:19.326Z,6.47
2018-11-04T04:20:48.421Z,8.40
2018-11-04T04:23:17.490Z,9.57
2018-11-04T04:25:46.399Z,6.13
2018-11-04T04:28:15.356Z,7.10
2018-11-04T04:30:44.301Z,6.93
2018-11-04T04:33:13.209Z,7.00
2018-11-04T04:35:42.119Z,9.33
2018-11-04T04:38:11.102Z,7.77
2018-11-04T04:40:40.116Z,8.13
2018-11-04T04:43:09.070Z,4.43
2018-11-04T04:45:38.042Z,7.73
2018-11-04T04:48:06.985Z,7.63
2018-11-04T04:50:35.922Z,5.43
2018-11-04T04:53:05.410Z,6.50
2018-11-04T04:55:34.335Z,6.23
2018-11-04T04:58:03.221Z,7.30
2018-11-04T05:00:32.159Z,6.30
2018-11-04T05:03:01.371Z,7.50
2018-11-04T05:05:30.318Z,5.27
2018-11-04T05:07:59.264Z,5.93
2018-11-04T05:10:28.199Z,8.30
2018-11-04T05:12:57.102Z,7.67
2018-11-04T05:15:26.031Z,7.10
2018-11-04T05:17:54.980Z,7.73
2018-11-04T05:20:23.884Z,6.83
2018-11-04T05:22:52.806Z,9.43
2018-11-04T05:25:21.699Z,6.50
2018-11-04T05:27:50.701Z,6.77
2018-11-04T05:30:19.653Z,9.53
2018-11-04T05:32:48.555Z,7.23
2018-11-04T05:35:17.478Z,7.40
2018-11-04T05:37:46.393Z,7.23
2018-11-04T05:40:15.360Z,8.23
2018-11-04T05:42:44.249Z,9.17
2018-11-04T05:45:13.143Z,6.63
2018-11-04T05:47:42.084Z,8.23
2018-11-04T05:50:11.032Z,8.13
2018-11-04T05:52:39.923Z,6.83
2018-11-04T05:55:09.333Z,5.40
2018-11-04T05:57:38.573Z,6.33
2018-11-04T06:00:08.700Z,7.87
2018-11-04T06:02:37.669Z,7.43
2018-11-04T06:05:06.952Z,6.63
2018-11-04T06:07:35.915Z,8.70
2018-11-04T06:10:05.139Z,7.90
2018-11-04T06:12:34.038Z,7.47
2018-11-04T06:15:02.965Z,10.73
2018-11-04T06:17:31.924Z,8.80
2018-11-04T06:20:00.840Z,10.13
2018-11-04T06:22:29.809Z,11.77
2018-11-04T06:24:58.727Z,10.03
2018-11-04T06:27:27.698Z,10.67
2018-11-04T06:29:56.656Z,10.23
2018-11-04T06:32:25.590Z,11.87
2018-11-04T06:34:54.513Z,8.70
2018-11-04T06:37:23.449Z,8.63
2018-11-04T06:39:52.358Z,11.50
2018-11-04T06:42:21.305Z,12.67
2018-11-04T06:44:50.226Z,13.53
2018-11-04T06:47:19.217Z,11.17
2018-11-04T06:49:48.253Z,9.43
2018-11-04T06:52:17.174Z,14.30
2018-11-04T06:54:46.159Z,13.67
2018-11-04T06:57:15.052Z,13.10
2018-11-04T06:59:43.958Z,14.87
2018-11-04T07:02:12.911Z,12.60
2018-11-04T07:04:41.855Z,12.63
2018-11-04T07:07:10.773Z,14.30
2018-11-04T07:09:39.715Z,13.13
2018-11-04T07:12:08.656Z,16.63
2018-11-04T07:14:37.549Z,13.67
2018-11-04T07:17:06.464Z,18.47
2018-11-04T07:19:35.492Z,14.37
2018-11-04T07:22:04.421Z,16.13
2018-11-04T07:24:33.324Z,15.33
2018-11-04T07:27:02.282Z,11.87
2018-11-04T07:29:31.237Z,17.30
2018-11-04T07:32:00.255Z,15.13
2018-11-04T07:34:29.124Z,20.83
2018-11-04T07:36:58.080Z,17.97
2018-11-04T07:39:27.004Z,17.17
2018-11-04T07:41:55.976Z,14.93
2018-11-04T07:44:25.066Z,16.40
2018-11-04T07:46:53.852Z,17.80
2018-11-04T07:49:22.821Z,16.50
2018-11-04T07:51:51.732Z,16.90
2018-11-04T07:54:20.676Z,20.73
2018-11-04T07:56:49.671Z,30.50
2018-11-04T07:59:18.605Z,29.43
2018-11-04T08:01:51.735Z,25.97
2018-11-04T08:04:22.847Z,27.83
2018-11-04T08:09:27.308Z,36.70
2018-11-04T08:11:56.316Z,34.20
2018-11-04T08:14:25.209Z,31.13
2018-11-04T08:16:54.161Z,29.43
2018-11-04T08:19:23.160Z,37.87
2018-11-04T08:21:53.737Z,31.73
2018-11-04T08:24:25.219Z,34.07
2018-11-04T08:27:07.560Z,35.67
2018-11-04T08:29:36.555Z,34.20
2018-11-04T08:32:05.647Z,37.40
2018-11-04T08:34:34.631Z,43.20
2018-11-04T08:37:03.559Z,31.70
2018-11-04T08:39:32.525Z,39.50
2018-11-04T08:42:01.501Z,41.77
2018-11-04T08:44:44.484Z,37.17
2018-11-04T08:47:13.403Z,33.20
2018-11-04T08:49:42.334Z,46.37
2018-11-04T08:52:11.306Z,36.07
2018-11-04T08:54:40.248Z,36.00
2018-11-04T08:57:09.231Z,36.97
2018-11-04T08:59:38.243Z,42.03
2018-11-04T09:02:07.171Z,39.83
2018-11-04T09:04:36.109Z,31.60
2018-11-04T09:07:05.049Z,36.97
2018-11-04T09:09:34.056Z,39.33
2018-11-04T09:12:03.264Z,34.37
2018-11-04T09:14:33.587Z,30.73
2018-11-04T09:17:02.546Z,33.00
2018-11-04T09:19:31.480Z,30.13
2018-11-04T09:22:00.558Z,33.17
2018-11-04T09:24:29.406Z,35.53
2018-11-04T09:26:58.384Z,35.23
2018-11-04T09:29:28.561Z,37.37
2018-11-04T09:32:02.949Z,35.43
2018-11-04T09:34:34.185Z,38.03
2018-11-04T09:37:03.094Z,43.03
2018-11-04T09:39:32.057Z,38.47
2018-11-04T09:42:01.002Z,39.20
2018-11-04T09:48:06.352Z,36.13
2018-11-04T09:50:35.309Z,39.37
2018-11-04T09:53:04.277Z,35.57
2018-11-04T09:55:33.234Z,42.53
2018-11-04T09:58:02.210Z,35.30
2018-11-04T10:00:31.200Z,33.10
2018-11-04T10:03:00.160Z,36.33
2018-11-04T10:05:29.125Z,39.63
2018-11-04T10:07:58.105Z,43.10
2018-11-04T10:10:27.069Z,40.77
2018-11-04T10:12:56.040Z,41.20
2018-11-04T10:15:25.008Z,41.00
2018-11-04T10:17:53.924Z,30.50
2018-11-04T10:20:23.094Z,33.60
2018-11-04T10:22:51.971Z,37.23
2018-11-04T10:25:20.948Z,37.20
2018-11-04T10:27:49.920Z,38.00
2018-11-04T10:30:18.973Z,29.90
2018-11-04T10:32:47.847Z,37.37
2018-11-04T10:35:16.836Z,41.17
2018-11-04T10:37:45.803Z,35.00
2018-11-04T10:40:14.772Z,33.00
2018-11-04T10:42:43.734Z,31.37
2018-11-04T10:45:12.667Z,34.87
2018-11-04T10:47:41.632Z,32.57
2018-11-04T10:50:11.682Z,33.33
2018-11-04T10:52:40.634Z,32.53
2018-11-04T10:55:10.684Z,27.87
2018-11-04T10:57:39.759Z,36.33
2018-11-04T11:00:15.874Z,25.43
2018-11-04T11:02:45.253Z,29.53
2018-11-04T11:05:14.404Z,33.37
2018-11-04T11:07:43.437Z,28.80
2018-11-04T11:10:12.598Z,32.33
2018-11-04T11:12:41.636Z,30.07
2018-11-04T11:15:11.359Z,30.43
2018-11-04T11:17:40.729Z,33.03
2018-11-04T11:20:10.786Z,29.90
2018-11-04T11:22:39.941Z,30.80
2018-11-04T11:25:09.480Z,33.57
2018-11-04T11:27:38.545Z,31.67
2018-11-04T11:30:07.596Z,32.00
2018-11-04T11:32:36.495Z,31.37
2018-11-04T11:35:06.495Z,29.57
2018-11-04T11:37:35.585Z,33.13
2018-11-04T11:40:04.573Z,32.87
2018-11-04T11:42:33.518Z,30.50
2018-11-04T11:45:02.591Z,35.87
2018-11-04T11:47:31.403Z,33.77
2018-11-04T11:50:00.379Z,32.27
2018-11-04T11:52:29.335Z,32.70
2018-11-04T11:54:58.354Z,36.97
2018-11-04T11:57:27.314Z,28.27
2018-11-04T11:59:56.280Z,34.40
2018-11-04T12:02:25.304Z,33.53
2018-11-04T12:04:54.239Z,36.27
2018-11-04T12:07:23.210Z,31.93
2018-11-04T12:09:52.298Z,38.30
2018-11-04T12:12:21.256Z,34.10
2018-11-04T12:14:50.236Z,37.20
2018-11-04T12:17:19.242Z,35.37
2018-11-04T12:19:48.219Z,36.50
2018-11-04T12:22:17.185Z,37.77
2018-11-04T12:24:46.163Z,32.63
2018-11-04T12:27:15.294Z,35.30
2018-11-04T12:29:44.228Z,34.33
2018-11-04T12:32:13.218Z,37.23
2018-11-04T12:34:42.189Z,37.40
2018-11-04T12:37:11.421Z,35.27
2018-11-04T12:39:40.416Z,36.03
2018-11-04T12:42:09.470Z,32.87
2018-11-04T12:44:38.468Z,35.80
2018-11-04T12:47:07.517Z,36.07
2018-11-04T12:49:36.501Z,33.47
2018-11-04T12:52:05.679Z,33.53
2018-11-04T12:54:34.712Z,34.43
2018-11-04T12:57:11.817Z,31.90
2018-11-04T12:59:40.791Z,36.77
2018-11-04T13:02:09.805Z,33.50
2018-11-04T13:04:39.262Z,34.00
2018-11-04T13:07:08.438Z,35.90
2018-11-04T13:09:37.444Z,36.83
2018-11-04T13:12:06.394Z,35.63
2018-11-04T13:14:35.388Z,33.60
2018-11-04T13:17:04.405Z,30.10
2018-11-04T13:19:33.311Z,29.40
2018-11-04T13:22:02.245Z,34.47
2018-11-04T13:24:31.182Z,35.97
2018-11-04T13:27:00.203Z,31.63
2018-11-04T13:29:29.118Z,35.40
2018-11-04T13:31:58.105Z,31.83
2018-11-04T13:34:27.048Z,35.60
2018-11-04T13:36:56.028Z,34.67
2018-11-04T13:39:25.010Z,36.37
2018-11-04T13:41:53.951Z,36.67
2018-11-04T13:44:22.903Z,32.87
2018-11-04T13:46:51.863Z,35.90
2018-11-04T13:49:20.784Z,32.90
2018-11-04T13:51:49.718Z,32.17
2018-11-04T13:54:18.657Z,31.53
2018-11-04T13:56:47.633Z,36.40
2018-11-04T13:59:16.577Z,27.63
2018-11-04T14:01:45.590Z,27.97
2018-11-04T14:04:14.527Z,29.73
2018-11-04T14:06:43.452Z,31.97
2018-11-04T14:09:12.377Z,29.17
2018-11-04T14:11:41.355Z,30.70
2018-11-04T14:14:10.301Z,27.87
2018-11-04T14:16:39.274Z,28.17
2018-11-04T14:19:08.240Z,27.47
2018-11-04T14:21:37.197Z,28.77
2018-11-04T14:24:06.159Z,27.13
2018-11-04T14:26:35.106Z,25.27
2018-11-04T14:29:04.093Z,29.53
2018-11-04T14:31:33.217Z,28.93
2018-11-04T14:34:02.170Z,27.57
2018-11-04T14:36:31.117Z,31.03
2018-11-04T14:39:00.350Z,34.23
2018-11-04T14:41:29.275Z,28.00
2018-11-04T14:43:58.253Z,29.10
2018-11-04T14:46:27.219Z,29.37
2018-11-04T14:48:56.171Z,27.00
2018-11-04T14:51:25.211Z,27.83
2018-11-04T14:53:54.267Z,30.23
2018-11-04T14:56:27.370Z,28.17
2018-11-04T14:58:56.859Z,28.00
2018-11-04T15:01:26.255Z,34.37
2018-11-04T15:03:55.232Z,32.10
2018-11-04T15:06:25.047Z,26.17
2018-11-04T15:08:54.232Z,27.27
2018-11-04T15:11:23.256Z,45.00
2018-11-04T15:13:52.257Z,33.93
2018-11-04T15:16:21.256Z,50.03
2018-11-04T15:18:50.247Z,32.70
2018-11-04T15:21:19.143Z,32.63
2018-11-04T15:23:48.118Z,38.93
2018-11-04T15:26:17.205Z,33.27
2018-11-04T15:28:46.192Z,27.57
2018-11-04T15:31:15.154Z,30.87
2018-11-04T15:33:44.132Z,29.50
2018-11-04T15:36:13.090Z,34.43
2018-11-04T15:38:42.138Z,27.70
2018-11-04T15:41:11.094Z,30.90
2018-11-04T15:43:40.006Z,29.13
2018-11-04T15:46:08.990Z,29.47
2018-11-04T15:48:37.961Z,30.83
2018-11-04T15:51:06.936Z,32.77
2018-11-04T15:53:35.911Z,32.33
2018-11-04T15:56:04.954Z,34.43
2018-11-04T15:58:34.317Z,30.83
2018-11-04T16:01:03.285Z,32.23
2018-11-04T16:03:32.255Z,34.50
2018-11-04T16:06:01.234Z,38.50
2018-11-04T16:08:30.272Z,38.90
2018-11-04T16:10:59.317Z,36.40
2018-11-04T16:13:28.441Z,39.07
2018-11-04T16:15:57.400Z,40.00
2018-11-04T16:18:26.413Z,41.13
2018-11-04T16:20:55.425Z,45.67
2018-11-04T16:23:24.409Z,37.03
2018-11-04T16:25:54.436Z,41.43
2018-11-04T16:28:23.397Z,38.97
2018-11-04T16:30:52.354Z,39.07
2018-11-04T16:33:21.456Z,38.87
2018-11-04T16:35:50.357Z,40.93
2018-11-04T16:38:19.317Z,49.50
2018-11-04T16:40:48.901Z,41.80
2018-11-04T16:43:17.990Z,39.53
2018-11-04T16:45:46.920Z,42.07
2018-11-04T16:48:15.911Z,45.07
2018-11-04T16:50:44.911Z,36.57
2018-11-04T16:53:13.879Z,38.60
2018-11-04T16:55:42.873Z,39.03
2018-11-04T16:58:11.868Z,37.77
2018-11-04T17:00:40.801Z,42.90
2018-11-04T17:03:09.873Z,41.70
2018-11-04T17:05:39.174Z,42.27
2018-11-04T17:08:07.844Z,45.50
2018-11-04T17:10:36.904Z,42.57
2018-11-04T17:13:06.458Z,43.90
2018-11-04T17:15:35.430Z,33.87
2018-11-04T17:18:04.484Z,40.17
2018-11-04T17:20:33.464Z,38.47
2018-11-04T17:23:02.482Z,41.70
2018-11-04T17:25:31.461Z,42.37
2018-11-04T17:28:00.440Z,44.83
2018-11-04T17:30:29.415Z,48.70
2018-11-04T17:32:58.425Z,42.73
2018-11-04T17:35:27.420Z,41.63
2018-11-04T17:37:56.419Z,41.43
2018-11-04T17:40:25.418Z,42.90
2018-11-04T17:42:54.392Z,44.97
2018-11-04T17:45:23.433Z,43.60
2018-11-04T17:47:52.363Z,52.03
2018-11-04T17:50:21.380Z,36.87
2018-11-04T17:52:50.376Z,45.57
2018-11-04T17:55:19.381Z,48.60
2018-11-04T17:57:48.379Z,45.47
2018-11-04T18:00:18.000Z,47.67
2018-11-04T18:02:47.076Z,48.00
2018-11-04T18:05:16.067Z,45.80
2018-11-04T18:07:45.254Z,49.10
2018-11-04T18:10:15.138Z,42.83
2018-11-04T18:12:44.199Z,50.93
2018-11-04T18:15:14.059Z,50.30
2018-11-04T18:17:43.048Z,46.87
2018-11-04T18:20:12.590Z,44.40
2018-11-04T18:22:41.683Z,45.87
2018-11-04T18:25:11.493Z,46.73
2018-11-04T18:27:40.496Z,43.63
2018-11-04T18:30:11.506Z,47.27
2018-11-04T18:32:40.525Z,48.83
2018-11-04T18:35:09.609Z,48.33
2018-11-04T18:37:38.891Z,47.23
2018-11-04T18:40:09.919Z,50.90
2018-11-04T18:42:40.772Z,47.13
2018-11-04T18:45:10.996Z,44.07
2018-11-04T18:47:40.005Z,47.33
2018-11-04T18:50:10.166Z,49.70
2018-11-04T18:52:39.299Z,45.83
2018-11-04T18:55:09.154Z,46.90
2018-11-04T18:57:38.183Z,47.23
2018-11-04T19:00:08.856Z,55.77
2018-11-04T19:02:37.874Z,52.00
2018-11-04T19:05:07.277Z,49.83
2018-11-04T19:07:36.278Z,51.90
2018-11-04T19:10:06.332Z,49.97
2018-11-04T19:12:35.807Z,54.70
2018-11-04T19:15:04.801Z,47.80
2018-11-04T19:17:37.368Z,56.73
2018-11-04T19:20:10.257Z,49.83
2018-11-04T19:22:45.291Z,50.20
2018-11-04T19:25:16.297Z,58.33
2018-11-04T19:27:47.384Z,58.63
2018-11-04T19:30:19.954Z,52.47
2018-11-04T19:32:49.128Z,57.37
2018-11-04T19:35:18.543Z,52.53
2018-11-04T19:37:47.568Z,60.97
2018-11-04T19:40:17.200Z,56.30
2018-11-04T19:42:46.207Z,57.77
2018-11-04T19:45:15.151Z,57.03
2018-11-04T19:47:44.184Z,58.03
2018-11-04T19:50:13.749Z,46.97
2018-11-04T19:52:43.036Z,52.60
2018-11-04T19:55:12.897Z,52.97
2018-11-04T19:57:41.902Z,60.23
2018-11-04T20:00:11.902Z,53.43
2018-11-04T20:02:40.919Z,51.40
2018-11-04T20:05:10.818Z,57.20
2018-11-04T20:07:39.765Z,64.60
2018-11-04T20:10:10.516Z,60.33
2018-11-04T20:12:47.000Z,55.50
2018-11-04T20:15:16.846Z,61.73
2018-11-04T20:17:48.122Z,54.17
2018-11-04T20:20:19.105Z,59.37
2018-11-04T20:22:50.522Z,57.17
2018-11-04T20:25:27.294Z,59.53
2018-11-04T20:28:03.746Z,58.03
2018-11-04T20:30:32.999Z,63.20
2018-11-04T20:33:04.046Z,56.73
2018-11-04T20:35:33.033Z,66.60
2018-11-04T20:38:02.021Z,54.40
2018-11-04T20:40:36.343Z,58.03
2018-11-04T20:43:14.041Z,68.80
2018-11-04T20:45:49.164Z,63.17
2018-11-04T20:48:29.810Z,65.10
2018-11-04T20:51:02.395Z,59.27
2018-11-04T20:53:36.292Z,63.17
2018-11-04T20:56:10.988Z,52.50
2018-11-04T20:58:40.399Z,56.97
2018-11-04T21:01:12.343Z,59.60
2018-11-04T21:03:47.187Z,55.50
2018-11-04T21:06:25.738Z,61.03
2018-11-04T21:08:55.560Z,53.20
2018-11-04T21:11:24.763Z,53.70
2018-11-04T21:13:53.748Z,62.60
2018-11-04T21:16:22.859Z,61.20
2018-11-04T21:18:51.756Z,66.87
2018-11-04T21:21:26.679Z,65.63
2018-11-04T21:23:57.295Z,70.93
2018-11-04T21:26:26.248Z,56.50
2018-11-04T21:28:55.253Z,59.43
2018-11-04T21:31:24.351Z,54.77
2018-11-04T21:33:53.293Z,79.32
2018-11-04T21:36:23.383Z,70.93
2018-11-04T21:38:52.329Z,63.03
2018-11-04T21:41:21.311Z,58.43
2018-11-04T21:43:50.495Z,63.97
2018-11-04T21:46:19.325Z,58.93
2018-11-04T21:48:48.315Z,58.47
2018-11-04T21:51:17.393Z,60.57
2018-11-04T21:53:46.374Z,63.57
2018-11-04T21:56:15.454Z,64.27
2018-11-04T21:58:44.343Z,56.67
2018-11-04T22:01:13.328Z,55.80
2018-11-04T22:03:42.522Z,62.20
2018-11-04T22:06:11.325Z,74.90
2018-11-04T22:08:40.314Z,59.43
2018-11-04T22:11:09.309Z,63.37
2018-11-04T22:13:38.323Z,61.33
2018-11-04T22:16:07.281Z,60.80
2018-11-04T22:18:36.328Z,61.30
2018-11-04T22:21:05.337Z,61.27
2018-11-04T22:23:34.274Z,58.73
2018-11-04T22:26:03.258Z,55.33
2018-11-04T22:28:32.185Z,59.93
2018-11-04T22:31:01.203Z,64.60
2018-11-04T22:33:30.210Z,64.47
2018-11-04T22:35:59.198Z,68.97
2018-11-04T22:38:28.161Z,58.77
2018-11-04T22:40:57.141Z,52.93
2018-11-04T22:43:26.090Z,57.60
2018-11-04T22:45:55.052Z,59.43
2018-11-04T22:48:24.042Z,55.40
2018-11-04T22:50:53.027Z,62.83
2018-11-04T22:53:22.002Z,58.73
2018-11-04T22:55:50.992Z,59.13
2018-11-04T22:58:19.945Z,63.23
2018-11-04T23:00:53.260Z,57.47
2018-11-04T23:03:22.260Z,56.60
2018-11-04T23:05:51.290Z,59.13
2018-11-04T23:08:20.373Z,54.53
2018-11-04T23:10:49.371Z,56.03
2018-11-04T23:13:18.363Z,76.63
2018-11-04T23:15:47.865Z,65.97
2018-11-04T23:18:16.880Z,54.03
2018-11-04T23:20:45.864Z,55.93
2018-11-04T23:23:15.983Z,54.27
2018-11-04T23:25:45.170Z,53.40
2018-11-04T23:28:14.152Z,59.10
2018-11-04T23:30:46.124Z,61.27
2018-11-04T23:33:15.681Z,64.93
2018-11-04T23:35:44.619Z,57.70
2018-11-04T23:38:13.554Z,56.27
2018-11-04T23:40:42.529Z,53.63
2018-11-04T23:43:11.451Z,58.03
2018-11-04T23:45:40.383Z,60.37
2018-11-04T23:48:09.380Z,63.37
2018-11-04T23:50:38.356Z,55.30
2018-11-04T23:53:07.321Z,67.37
2018-11-04T23:55:36.271Z,53.93
2018-11-04T23:58:05.565Z,58.93
